sensor_id;sensor_type;location;lat;lon;timestamp;P1;durP1;ratioP1;P2;durP2;ratioP2
82558;SDS011;72227;42.004;21.364;2024-03-22T00:02:21;1999.90;;;999.90;;
82558;SDS011;72227;42.004;21.364;2024-03-22T00:04:48;1999.90;;;999.90;;
82558;SDS011;72227;42.004;21.364;2024-03-22T00:07:14;1999.90;;;999.90;;
82558;SDS011;72227;42.004;21.364;2024-03-22T00:09:40;1999.90;;;999.90;;
82558;SDS011;72227;42.004;21.364;2024-03-22T00:12:06;1999.90;;;999.90;;
82558;SDS011;72227;42.004;21.364;2024-03-22T00:14:32;1999.90;;;999.90;;
82558;SDS011;72227;42.004;21.364;2024-03-22T00:16:58;1999.90;;;999.90;;
82558;SDS011;72227;42.004;21.364;2024-03-22T00:19:24;1999.90;;;999.90;;
82558;SDS011;72227;42.004;21.364;2024-03-22T00:21:50;1999.90;;;999.90;;
82558;SDS011;72227;42.004;21.364;2024-03-22T00:24:16;1999.90;;;999.90;;
82558;SDS011;72227;42.004;21.364;2024-03-22T00:26:42;1999.90;;;999.90;;
82558;SDS011;72227;42.004;21.364;2024-03-22T00:29:08;1999.90;;;999.90;;
82558;SDS011;72227;42.004;21.364;2024-03-22T00:31:35;1999.90;;;999.90;;
82558;SDS011;72227;42.004;21.364;2024-03-22T00:34:01;1999.90;;;999.90;;
82558;SDS011;72227;42.004;21.364;2024-03-22T00:36:27;1999.90;;;999.90;;
82558;SDS011;72227;42.004;21.364;2024-03-22T00:38:53;1999.90;;;999.90;;
82558;SDS011;72227;42.004;21.364;2024-03-22T00:41:19;1999.90;;;999.90;;
82558;SDS011;72227;42.004;21.364;2024-03-22T00:43:45;1999.90;;;999.90;;
82558;SDS011;72227;42.004;21.364;2024-03-22T00:46:11;1999.90;;;999.90;;
82558;SDS011;72227;42.004;21.364;2024-03-22T00:48:37;1999.90;;;999.90;;
82558;SDS011;72227;42.004;21.364;2024-03-22T00:51:03;1999.90;;;999.90;;
82558;SDS011;72227;42.004;21.364;2024-03-22T00:53:29;1999.90;;;999.90;;
82558;SDS011;72227;42.004;21.364;2024-03-22T00:55:55;1999.90;;;999.90;;
82558;SDS011;72227;42.004;21.364;2024-03-22T00:58:24;1999.90;;;999.90;;
82558;SDS011;72227;42.004;21.364;2024-03-22T01:00:50;1999.90;;;999.90;;
82558;SDS011;72227;42.004;21.364;2024-03-22T01:03:16;1999.90;;;999.90;;
82558;SDS011;72227;42.004;21.364;2024-03-22T01:05:42;1999.90;;;999.90;;
82558;SDS011;72227;42.004;21.364;2024-03-22T01:08:09;1999.90;;;999.90;;
82558;SDS011;72227;42.004;21.364;2024-03-22T01:10:35;1999.90;;;999.90;;
82558;SDS011;72227;42.004;21.364;2024-03-22T01:13:01;1999.90;;;999.90;;
82558;SDS011;72227;42.004;21.364;2024-03-22T01:15:27;1999.90;;;999.90;;
82558;SDS011;72227;42.004;21.364;2024-03-22T01:17:54;1999.90;;;999.90;;
82558;SDS011;72227;42.004;21.364;2024-03-22T01:20:20;1999.90;;;999.90;;
82558;SDS011;72227;42.004;21.364;2024-03-22T01:22:46;1999.90;;;999.90;;
82558;SDS011;72227;42.004;21.364;2024-03-22T01:25:12;1999.90;;;999.90;;
82558;SDS011;72227;42.004;21.364;2024-03-22T01:27:38;1999.90;;;999.90;;
82558;SDS011;72227;42.004;21.364;2024-03-22T01:30:04;1999.90;;;999.90;;
82558;SDS011;72227;42.004;21.364;2024-03-22T01:32:31;1999.90;;;999.90;;
82558;SDS011;72227;42.004;21.364;2024-03-22T01:34:57;1999.90;;;999.90;;
82558;SDS011;72227;42.004;21.364;2024-03-22T01:37:23;1999.90;;;999.90;;
82558;SDS011;72227;42.004;21.364;2024-03-22T01:39:49;1999.90;;;999.90;;
82558;SDS011;72227;42.004;21.364;2024-03-22T01:42:15;1999.90;;;999.90;;
82558;SDS011;72227;42.004;21.364;2024-03-22T01:44:42;1999.90;;;999.90;;
82558;SDS011;72227;42.004;21.364;2024-03-22T01:47:08;1999.90;;;999.90;;
82558;SDS011;72227;42.004;21.364;2024-03-22T01:49:34;1999.90;;;999.90;;
82558;SDS011;72227;42.004;21.364;2024-03-22T01:52:00;1999.90;;;999.90;;
82558;SDS011;72227;42.004;21.364;2024-03-22T01:54:27;1999.90;;;999.90;;
82558;SDS011;72227;42.004;21.364;2024-03-22T01:56:53;1999.90;;;999.90;;
82558;SDS011;72227;42.004;21.364;2024-03-22T01:59:19;1999.90;;;999.90;;
82558;SDS011;72227;42.004;21.364;2024-03-22T02:01:46;1999.90;;;999.90;;
82558;SDS011;72227;42.004;21.364;2024-03-22T02:04:14;1999.90;;;999.90;;
82558;SDS011;72227;42.004;21.364;2024-03-22T02:06:40;1999.90;;;999.90;;
82558;SDS011;72227;42.004;21.364;2024-03-22T02:09:06;1999.90;;;999.90;;
82558;SDS011;72227;42.004;21.364;2024-03-22T02:11:34;1999.90;;;999.90;;
82558;SDS011;72227;42.004;21.364;2024-03-22T02:14:02;1999.90;;;999.90;;
82558;SDS011;72227;42.004;21.364;2024-03-22T02:16:29;1999.90;;;999.90;;
82558;SDS011;72227;42.004;21.364;2024-03-22T02:18:55;1999.90;;;999.90;;
82558;SDS011;72227;42.004;21.364;2024-03-22T02:21:21;1999.90;;;999.90;;
82558;SDS011;72227;42.004;21.364;2024-03-22T02:23:47;1999.90;;;999.90;;
82558;SDS011;72227;42.004;21.364;2024-03-22T02:26:13;1999.90;;;999.90;;
82558;SDS011;72227;42.004;21.364;2024-03-22T02:28:39;1999.90;;;999.90;;
82558;SDS011;72227;42.004;21.364;2024-03-22T02:31:05;1999.90;;;999.90;;
82558;SDS011;72227;42.004;21.364;2024-03-22T02:33:31;1999.90;;;999.90;;
82558;SDS011;72227;42.004;21.364;2024-03-22T02:35:57;1999.90;;;999.90;;
82558;SDS011;72227;42.004;21.364;2024-03-22T02:38:23;1999.90;;;999.90;;
82558;SDS011;72227;42.004;21.364;2024-03-22T02:40:50;1999.90;;;999.90;;
82558;SDS011;72227;42.004;21.364;2024-03-22T02:43:16;1999.90;;;999.90;;
82558;SDS011;72227;42.004;21.364;2024-03-22T02:45:44;1999.90;;;999.90;;
82558;SDS011;72227;42.004;21.364;2024-03-22T02:48:10;1999.90;;;999.90;;
82558;SDS011;72227;42.004;21.364;2024-03-22T02:50:36;1999.90;;;999.90;;
82558;SDS011;72227;42.004;21.364;2024-03-22T02:53:03;1999.90;;;999.90;;
82558;SDS011;72227;42.004;21.364;2024-03-22T02:55:29;1999.90;;;999.90;;
82558;SDS011;72227;42.004;21.364;2024-03-22T02:57:56;1999.90;;;999.90;;
82558;SDS011;72227;42.004;21.364;2024-03-22T03:00:22;1999.90;;;999.90;;
82558;SDS011;72227;42.004;21.364;2024-03-22T03:02:48;1999.90;;;999.90;;
82558;SDS011;72227;42.004;21.364;2024-03-22T03:05:14;1999.90;;;999.90;;
82558;SDS011;72227;42.004;21.364;2024-03-22T03:07:41;1999.90;;;999.90;;
82558;SDS011;72227;42.004;21.364;2024-03-22T03:10:07;1999.90;;;999.90;;
82558;SDS011;72227;42.004;21.364;2024-03-22T03:12:33;1999.90;;;999.90;;
82558;SDS011;72227;42.004;21.364;2024-03-22T03:14:59;1999.90;;;999.90;;
82558;SDS011;72227;42.004;21.364;2024-03-22T03:17:25;1999.90;;;999.90;;
82558;SDS011;72227;42.004;21.364;2024-03-22T03:19:51;1999.90;;;999.90;;
82558;SDS011;72227;42.004;21.364;2024-03-22T03:22:17;1999.90;;;999.90;;
82558;SDS011;72227;42.004;21.364;2024-03-22T03:24:43;1999.90;;;999.90;;
82558;SDS011;72227;42.004;21.364;2024-03-22T03:27:09;1999.90;;;999.90;;
82558;SDS011;72227;42.004;21.364;2024-03-22T03:29:36;1999.90;;;999.90;;
82558;SDS011;72227;42.004;21.364;2024-03-22T03:32:02;1999.90;;;999.90;;
82558;SDS011;72227;42.004;21.364;2024-03-22T03:34:28;1999.90;;;999.90;;
82558;SDS011;72227;42.004;21.364;2024-03-22T03:36:54;1999.90;;;999.90;;
82558;SDS011;72227;42.004;21.364;2024-03-22T03:39:20;1999.90;;;999.90;;
82558;SDS011;72227;42.004;21.364;2024-03-22T03:41:46;1999.90;;;999.90;;
82558;SDS011;72227;42.004;21.364;2024-03-22T03:44:12;1999.90;;;999.90;;
82558;SDS011;72227;42.004;21.364;2024-03-22T03:46:39;1999.90;;;999.90;;
82558;SDS011;72227;42.004;21.364;2024-03-22T03:49:05;1999.90;;;999.90;;
82558;SDS011;72227;42.004;21.364;2024-03-22T03:51:31;1999.90;;;999.90;;
82558;SDS011;72227;42.004;21.364;2024-03-22T03:53:57;1999.90;;;999.90;;
82558;SDS011;72227;42.004;21.364;2024-03-22T03:56:23;1999.90;;;999.90;;
82558;SDS011;72227;42.004;21.364;2024-03-22T03:58:49;1999.90;;;999.90;;
82558;SDS011;72227;42.004;21.364;2024-03-22T04:01:15;1999.90;;;999.90;;
82558;SDS011;72227;42.004;21.364;2024-03-22T04:03:43;1999.90;;;999.90;;
82558;SDS011;72227;42.004;21.364;2024-03-22T04:06:09;1999.90;;;999.90;;
82558;SDS011;72227;42.004;21.364;2024-03-22T04:08:35;1999.90;;;999.90;;
82558;SDS011;72227;42.004;21.364;2024-03-22T04:11:01;1999.90;;;999.90;;
82558;SDS011;72227;42.004;21.364;2024-03-22T04:13:28;1999.90;;;999.90;;
82558;SDS011;72227;42.004;21.364;2024-03-22T04:15:54;1999.90;;;999.90;;
82558;SDS011;72227;42.004;21.364;2024-03-22T04:18:20;1999.90;;;999.90;;
82558;SDS011;72227;42.004;21.364;2024-03-22T04:20:59;1999.90;;;999.90;;
82558;SDS011;72227;42.004;21.364;2024-03-22T04:23:25;1999.90;;;999.90;;
82558;SDS011;72227;42.004;21.364;2024-03-22T04:25:55;1999.90;;;999.90;;
82558;SDS011;72227;42.004;21.364;2024-03-22T04:28:21;1999.90;;;999.90;;
82558;SDS011;72227;42.004;21.364;2024-03-22T04:30:57;1999.90;;;999.90;;
82558;SDS011;72227;42.004;21.364;2024-03-22T04:33:24;1999.90;;;999.90;;
82558;SDS011;72227;42.004;21.364;2024-03-22T04:35:50;1999.90;;;999.90;;
82558;SDS011;72227;42.004;21.364;2024-03-22T04:38:16;1999.90;;;999.90;;
82558;SDS011;72227;42.004;21.364;2024-03-22T04:40:42;1999.90;;;999.90;;
82558;SDS011;72227;42.004;21.364;2024-03-22T04:43:08;1999.90;;;999.90;;
82558;SDS011;72227;42.004;21.364;2024-03-22T04:45:34;1999.90;;;999.90;;
82558;SDS011;72227;42.004;21.364;2024-03-22T04:48:01;1999.90;;;999.90;;
82558;SDS011;72227;42.004;21.364;2024-03-22T04:50:27;1999.90;;;999.90;;
82558;SDS011;72227;42.004;21.364;2024-03-22T04:52:53;1999.90;;;999.90;;
82558;SDS011;72227;42.004;21.364;2024-03-22T04:55:19;1999.90;;;999.90;;
82558;SDS011;72227;42.004;21.364;2024-03-22T04:57:45;1999.90;;;999.90;;
82558;SDS011;72227;42.004;21.364;2024-03-22T05:00:12;1999.90;;;999.90;;
82558;SDS011;72227;42.004;21.364;2024-03-22T05:02:38;1999.90;;;999.90;;
82558;SDS011;72227;42.004;21.364;2024-03-22T05:05:05;1999.90;;;999.90;;
82558;SDS011;72227;42.004;21.364;2024-03-22T05:07:32;1999.90;;;999.90;;
82558;SDS011;72227;42.004;21.364;2024-03-22T05:09:58;1999.90;;;999.90;;
82558;SDS011;72227;42.004;21.364;2024-03-22T05:12:24;1999.90;;;999.90;;
82558;SDS011;72227;42.004;21.364;2024-03-22T05:14:51;1999.90;;;999.90;;
82558;SDS011;72227;42.004;21.364;2024-03-22T05:17:18;1999.90;;;999.90;;
82558;SDS011;72227;42.004;21.364;2024-03-22T05:19:44;1999.90;;;999.90;;
82558;SDS011;72227;42.004;21.364;2024-03-22T05:22:10;1999.90;;;999.90;;
82558;SDS011;72227;42.004;21.364;2024-03-22T05:24:36;1999.90;;;999.90;;
82558;SDS011;72227;42.004;21.364;2024-03-22T05:27:02;1999.90;;;999.90;;
82558;SDS011;72227;42.004;21.364;2024-03-22T05:29:28;1999.90;;;999.90;;
82558;SDS011;72227;42.004;21.364;2024-03-22T05:31:54;1999.90;;;999.90;;
82558;SDS011;72227;42.004;21.364;2024-03-22T05:34:20;1999.90;;;999.90;;
82558;SDS011;72227;42.004;21.364;2024-03-22T05:36:46;1999.90;;;999.90;;
82558;SDS011;72227;42.004;21.364;2024-03-22T05:39:12;1999.90;;;999.90;;
82558;SDS011;72227;42.004;21.364;2024-03-22T05:41:38;1999.90;;;999.90;;
82558;SDS011;72227;42.004;21.364;2024-03-22T05:44:04;1999.90;;;999.90;;
82558;SDS011;72227;42.004;21.364;2024-03-22T05:46:30;1999.90;;;999.90;;
82558;SDS011;72227;42.004;21.364;2024-03-22T05:49:00;1999.90;;;999.90;;
82558;SDS011;72227;42.004;21.364;2024-03-22T05:51:26;1999.90;;;999.90;;
82558;SDS011;72227;42.004;21.364;2024-03-22T05:53:52;1999.90;;;999.90;;
82558;SDS011;72227;42.004;21.364;2024-03-22T05:56:18;1999.90;;;999.90;;
82558;SDS011;72227;42.004;21.364;2024-03-22T05:58:44;1999.90;;;999.90;;
82558;SDS011;72227;42.004;21.364;2024-03-22T06:01:10;1999.90;;;999.90;;
82558;SDS011;72227;42.004;21.364;2024-03-22T06:03:36;1999.90;;;999.90;;
82558;SDS011;72227;42.004;21.364;2024-03-22T06:06:02;1999.90;;;999.90;;
82558;SDS011;72227;42.004;21.364;2024-03-22T06:08:29;1999.90;;;999.90;;
82558;SDS011;72227;42.004;21.364;2024-03-22T06:10:56;1999.90;;;999.90;;
82558;SDS011;72227;42.004;21.364;2024-03-22T06:13:23;1999.90;;;999.90;;
82558;SDS011;72227;42.004;21.364;2024-03-22T06:15:49;1999.90;;;999.90;;
82558;SDS011;72227;42.004;21.364;2024-03-22T06:18:15;1999.90;;;999.90;;
82558;SDS011;72227;42.004;21.364;2024-03-22T06:20:41;1999.90;;;999.90;;
82558;SDS011;72227;42.004;21.364;2024-03-22T06:23:08;1999.90;;;999.90;;
82558;SDS011;72227;42.004;21.364;2024-03-22T06:25:34;1999.90;;;999.90;;
82558;SDS011;72227;42.004;21.364;2024-03-22T06:28:00;1999.90;;;999.90;;
82558;SDS011;72227;42.004;21.364;2024-03-22T06:30:27;1999.90;;;999.90;;
82558;SDS011;72227;42.004;21.364;2024-03-22T06:32:53;1999.90;;;999.90;;
82558;SDS011;72227;42.004;21.364;2024-03-22T06:35:22;1999.90;;;999.90;;
82558;SDS011;72227;42.004;21.364;2024-03-22T06:37:48;1999.90;;;999.90;;
82558;SDS011;72227;42.004;21.364;2024-03-22T06:40:15;1999.90;;;999.90;;
82558;SDS011;72227;42.004;21.364;2024-03-22T06:42:41;1999.90;;;999.90;;
82558;SDS011;72227;42.004;21.364;2024-03-22T06:45:07;1999.90;;;999.90;;
82558;SDS011;72227;42.004;21.364;2024-03-22T06:47:33;1999.90;;;999.90;;
82558;SDS011;72227;42.004;21.364;2024-03-22T06:49:59;1999.90;;;999.90;;
82558;SDS011;72227;42.004;21.364;2024-03-22T06:52:25;1999.90;;;999.90;;
82558;SDS011;72227;42.004;21.364;2024-03-22T06:54:51;1999.90;;;999.90;;
82558;SDS011;72227;42.004;21.364;2024-03-22T06:57:18;1999.90;;;999.90;;
82558;SDS011;72227;42.004;21.364;2024-03-22T06:59:44;1999.90;;;999.90;;
82558;SDS011;72227;42.004;21.364;2024-03-22T07:02:10;1999.90;;;999.90;;
82558;SDS011;72227;42.004;21.364;2024-03-22T07:04:39;1999.90;;;999.90;;
82558;SDS011;72227;42.004;21.364;2024-03-22T07:07:05;1999.90;;;999.90;;
82558;SDS011;72227;42.004;21.364;2024-03-22T07:09:32;1999.90;;;999.90;;
82558;SDS011;72227;42.004;21.364;2024-03-22T07:11:59;1999.90;;;999.90;;
82558;SDS011;72227;42.004;21.364;2024-03-22T07:14:25;1999.90;;;999.90;;
82558;SDS011;72227;42.004;21.364;2024-03-22T07:16:51;1999.90;;;999.90;;
82558;SDS011;72227;42.004;21.364;2024-03-22T07:19:21;1999.90;;;999.90;;
82558;SDS011;72227;42.004;21.364;2024-03-22T07:21:47;1999.90;;;999.90;;
82558;SDS011;72227;42.004;21.364;2024-03-22T07:24:13;1999.90;;;999.90;;
82558;SDS011;72227;42.004;21.364;2024-03-22T07:26:39;1999.90;;;999.90;;
82558;SDS011;72227;42.004;21.364;2024-03-22T07:29:06;1999.90;;;999.90;;
82558;SDS011;72227;42.004;21.364;2024-03-22T07:31:32;1999.90;;;999.90;;
82558;SDS011;72227;42.004;21.364;2024-03-22T07:33:58;1999.90;;;999.90;;
82558;SDS011;72227;42.004;21.364;2024-03-22T07:36:24;1999.90;;;999.90;;
82558;SDS011;72227;42.004;21.364;2024-03-22T07:38:51;113.78;;;108.72;;
82558;SDS011;72227;42.004;21.364;2024-03-22T07:41:18;128.15;;;122.85;;
82558;SDS011;72227;42.004;21.364;2024-03-22T07:43:44;103.13;;;98.10;;
82558;SDS011;72227;42.004;21.364;2024-03-22T07:46:10;96.38;;;91.90;;
82558;SDS011;72227;42.004;21.364;2024-03-22T07:48:36;85.90;;;81.57;;
82558;SDS011;72227;42.004;21.364;2024-03-22T07:51:02;102.78;;;97.82;;
82558;SDS011;72227;42.004;21.364;2024-03-22T07:53:29;91.80;;;87.53;;
82558;SDS011;72227;42.004;21.364;2024-03-22T07:55:55;90.65;;;86.63;;
82558;SDS011;72227;42.004;21.364;2024-03-22T07:58:21;90.82;;;86.78;;
82558;SDS011;72227;42.004;21.364;2024-03-22T08:00:47;89.70;;;85.32;;
82558;SDS011;72227;42.004;21.364;2024-03-22T08:03:16;70.18;;;66.57;;
82558;SDS011;72227;42.004;21.364;2024-03-22T08:05:43;87.43;;;83.63;;
82558;SDS011;72227;42.004;21.364;2024-03-22T08:08:09;93.10;;;88.47;;
82558;SDS011;72227;42.004;21.364;2024-03-22T08:10:35;99.18;;;94.43;;
82558;SDS011;72227;42.004;21.364;2024-03-22T08:13:03;93.28;;;89.13;;
82558;SDS011;72227;42.004;21.364;2024-03-22T08:15:29;94.07;;;89.40;;
82558;SDS011;72227;42.004;21.364;2024-03-22T08:17:55;96.55;;;92.30;;
82558;SDS011;72227;42.004;21.364;2024-03-22T08:20:24;92.75;;;88.70;;
82558;SDS011;72227;42.004;21.364;2024-03-22T08:22:50;91.13;;;87.22;;
82558;SDS011;72227;42.004;21.364;2024-03-22T08:25:16;103.28;;;98.93;;
82558;SDS011;72227;42.004;21.364;2024-03-22T08:27:44;87.43;;;83.43;;
82558;SDS011;72227;42.004;21.364;2024-03-22T08:30:11;106.60;;;102.10;;
82558;SDS011;72227;42.004;21.364;2024-03-22T08:32:37;86.57;;;82.90;;
82558;SDS011;72227;42.004;21.364;2024-03-22T08:35:03;88.80;;;85.05;;
82558;SDS011;72227;42.004;21.364;2024-03-22T08:37:29;98.43;;;94.13;;
82558;SDS011;72227;42.004;21.364;2024-03-22T08:39:56;86.57;;;82.47;;
82558;SDS011;72227;42.004;21.364;2024-03-22T08:42:22;86.53;;;82.63;;
82558;SDS011;72227;42.004;21.364;2024-03-22T08:44:48;85.97;;;81.93;;
82558;SDS011;72227;42.004;21.364;2024-03-22T08:47:14;93.75;;;89.55;;
82558;SDS011;72227;42.004;21.364;2024-03-22T08:49:40;67.25;;;63.90;;
82558;SDS011;72227;42.004;21.364;2024-03-22T08:52:08;77.22;;;73.53;;
82558;SDS011;72227;42.004;21.364;2024-03-22T08:54:34;55.15;;;52.33;;
82558;SDS011;72227;42.004;21.364;2024-03-22T08:57:00;76.55;;;73.22;;
82558;SDS011;72227;42.004;21.364;2024-03-22T08:59:26;79.78;;;75.68;;
82558;SDS011;72227;42.004;21.364;2024-03-22T09:01:53;81.97;;;78.38;;
82558;SDS011;72227;42.004;21.364;2024-03-22T09:04:19;81.30;;;77.60;;
82558;SDS011;72227;42.004;21.364;2024-03-22T09:06:45;78.72;;;74.90;;
82558;SDS011;72227;42.004;21.364;2024-03-22T09:09:11;89.93;;;85.85;;
82558;SDS011;72227;42.004;21.364;2024-03-22T09:11:38;65.22;;;61.78;;
82558;SDS011;72227;42.004;21.364;2024-03-22T09:14:04;80.93;;;77.25;;
82558;SDS011;72227;42.004;21.364;2024-03-22T09:16:30;58.13;;;55.22;;
82558;SDS011;72227;42.004;21.364;2024-03-22T09:18:56;83.85;;;79.95;;
82558;SDS011;72227;42.004;21.364;2024-03-22T09:21:23;79.97;;;76.40;;
82558;SDS011;72227;42.004;21.364;2024-03-22T09:23:49;79.95;;;76.43;;
82558;SDS011;72227;42.004;21.364;2024-03-22T09:26:15;88.13;;;84.25;;
82558;SDS011;72227;42.004;21.364;2024-03-22T09:28:41;83.68;;;80.00;;
82558;SDS011;72227;42.004;21.364;2024-03-22T09:31:08;88.53;;;84.68;;
82558;SDS011;72227;42.004;21.364;2024-03-22T09:33:34;76.47;;;72.93;;
82558;SDS011;72227;42.004;21.364;2024-03-22T09:36:00;64.25;;;61.15;;
82558;SDS011;72227;42.004;21.364;2024-03-22T09:38:27;152.32;;;146.68;;
82558;SDS011;72227;42.004;21.364;2024-03-22T09:40:53;78.53;;;74.63;;
82558;SDS011;72227;42.004;21.364;2024-03-22T09:43:19;79.65;;;75.72;;
82558;SDS011;72227;42.004;21.364;2024-03-22T09:45:46;89.30;;;85.50;;
82558;SDS011;72227;42.004;21.364;2024-03-22T09:48:13;81.63;;;77.97;;
82558;SDS011;72227;42.004;21.364;2024-03-22T09:50:40;89.85;;;85.90;;
82558;SDS011;72227;42.004;21.364;2024-03-22T09:53:06;70.57;;;67.38;;
82558;SDS011;72227;42.004;21.364;2024-03-22T09:55:33;88.43;;;84.75;;
82558;SDS011;72227;42.004;21.364;2024-03-22T09:58:02;86.80;;;82.72;;
82558;SDS011;72227;42.004;21.364;2024-03-22T10:00:29;106.97;;;102.18;;
82558;SDS011;72227;42.004;21.364;2024-03-22T10:02:56;85.35;;;81.68;;
82558;SDS011;72227;42.004;21.364;2024-03-22T10:05:23;90.18;;;85.85;;
82558;SDS011;72227;42.004;21.364;2024-03-22T10:07:49;86.72;;;83.00;;
82558;SDS011;72227;42.004;21.364;2024-03-22T10:10:17;87.38;;;83.55;;
82558;SDS011;72227;42.004;21.364;2024-03-22T10:12:43;95.07;;;90.88;;
82558;SDS011;72227;42.004;21.364;2024-03-22T10:15:10;88.85;;;84.40;;
82558;SDS011;72227;42.004;21.364;2024-03-22T10:17:38;91.97;;;87.93;;
82558;SDS011;72227;42.004;21.364;2024-03-22T10:20:05;87.57;;;83.95;;
82558;SDS011;72227;42.004;21.364;2024-03-22T10:22:47;89.53;;;84.97;;
82558;SDS011;72227;42.004;21.364;2024-03-22T10:25:14;62.67;;;59.45;;
82558;SDS011;72227;42.004;21.364;2024-03-22T10:27:40;83.32;;;79.57;;
82558;SDS011;72227;42.004;21.364;2024-03-22T10:30:07;88.30;;;84.40;;
82558;SDS011;72227;42.004;21.364;2024-03-22T10:32:35;90.10;;;86.18;;
82558;SDS011;72227;42.004;21.364;2024-03-22T10:35:02;87.25;;;83.53;;
82558;SDS011;72227;42.004;21.364;2024-03-22T10:37:34;99.70;;;95.38;;
82558;SDS011;72227;42.004;21.364;2024-03-22T10:40:03;98.90;;;94.93;;
82558;SDS011;72227;42.004;21.364;2024-03-22T10:42:36;95.57;;;91.53;;
82558;SDS011;72227;42.004;21.364;2024-03-22T10:45:02;127.65;;;122.70;;
82558;SDS011;72227;42.004;21.364;2024-03-22T10:47:30;95.15;;;91.28;;
82558;SDS011;72227;42.004;21.364;2024-03-22T10:50:09;79.45;;;75.90;;
82558;SDS011;72227;42.004;21.364;2024-03-22T10:52:37;100.72;;;96.47;;
82558;SDS011;72227;42.004;21.364;2024-03-22T10:55:04;89.50;;;85.70;;
82558;SDS011;72227;42.004;21.364;2024-03-22T10:57:31;76.63;;;73.00;;
82558;SDS011;72227;42.004;21.364;2024-03-22T11:00:02;89.80;;;86.13;;
82558;SDS011;72227;42.004;21.364;2024-03-22T11:02:28;86.78;;;83.18;;
82558;SDS011;72227;42.004;21.364;2024-03-22T11:04:57;75.20;;;71.97;;
82558;SDS011;72227;42.004;21.364;2024-03-22T11:07:23;102.20;;;97.93;;
82558;SDS011;72227;42.004;21.364;2024-03-22T11:09:53;87.63;;;83.90;;
82558;SDS011;72227;42.004;21.364;2024-03-22T11:12:21;71.10;;;68.05;;
82558;SDS011;72227;42.004;21.364;2024-03-22T11:14:50;87.03;;;83.25;;
82558;SDS011;72227;42.004;21.364;2024-03-22T11:17:17;95.30;;;91.40;;
82558;SDS011;72227;42.004;21.364;2024-03-22T11:19:43;110.47;;;106.22;;
82558;SDS011;72227;42.004;21.364;2024-03-22T11:22:09;86.13;;;82.53;;
82558;SDS011;72227;42.004;21.364;2024-03-22T11:24:39;95.32;;;91.43;;
82558;SDS011;72227;42.004;21.364;2024-03-22T11:27:05;100.55;;;96.45;;
82558;SDS011;72227;42.004;21.364;2024-03-22T11:29:32;103.53;;;99.18;;
82558;SDS011;72227;42.004;21.364;2024-03-22T11:31:59;108.53;;;104.05;;
82558;SDS011;72227;42.004;21.364;2024-03-22T11:34:25;84.70;;;81.00;;
82558;SDS011;72227;42.004;21.364;2024-03-22T11:36:53;96.65;;;92.82;;
82558;SDS011;72227;42.004;21.364;2024-03-22T11:39:19;94.03;;;90.03;;
82558;SDS011;72227;42.004;21.364;2024-03-22T11:41:45;85.65;;;82.10;;
82558;SDS011;72227;42.004;21.364;2024-03-22T11:44:14;105.53;;;101.07;;
82558;SDS011;72227;42.004;21.364;2024-03-22T11:46:41;171.85;;;164.75;;
82558;SDS011;72227;42.004;21.364;2024-03-22T11:49:07;77.65;;;73.93;;
82558;SDS011;72227;42.004;21.364;2024-03-22T11:51:33;94.53;;;90.47;;
82558;SDS011;72227;42.004;21.364;2024-03-22T11:53:59;102.35;;;98.18;;
82558;SDS011;72227;42.004;21.364;2024-03-22T11:56:28;87.95;;;84.05;;
82558;SDS011;72227;42.004;21.364;2024-03-22T11:58:59;97.25;;;93.10;;
82558;SDS011;72227;42.004;21.364;2024-03-22T12:01:25;106.40;;;102.20;;
82558;SDS011;72227;42.004;21.364;2024-03-22T12:03:52;93.15;;;89.47;;
82558;SDS011;72227;42.004;21.364;2024-03-22T12:06:18;91.10;;;86.97;;
82558;SDS011;72227;42.004;21.364;2024-03-22T12:08:44;87.70;;;83.90;;
82558;SDS011;72227;42.004;21.364;2024-03-22T12:11:10;105.97;;;101.80;;
82558;SDS011;72227;42.004;21.364;2024-03-22T12:13:39;96.72;;;93.05;;
82558;SDS011;72227;42.004;21.364;2024-03-22T12:16:05;110.78;;;106.32;;
82558;SDS011;72227;42.004;21.364;2024-03-22T12:18:32;103.13;;;99.05;;
82558;SDS011;72227;42.004;21.364;2024-03-22T12:20:58;113.65;;;109.20;;
82558;SDS011;72227;42.004;21.364;2024-03-22T12:23:25;88.43;;;84.85;;
82558;SDS011;72227;42.004;21.364;2024-03-22T12:25:51;106.40;;;102.28;;
82558;SDS011;72227;42.004;21.364;2024-03-22T12:28:20;104.65;;;100.55;;
82558;SDS011;72227;42.004;21.364;2024-03-22T12:30:46;102.57;;;98.32;;
82558;SDS011;72227;42.004;21.364;2024-03-22T12:33:13;66.13;;;63.10;;
82558;SDS011;72227;42.004;21.364;2024-03-22T12:35:39;82.03;;;78.53;;
82558;SDS011;72227;42.004;21.364;2024-03-22T12:38:06;94.35;;;90.43;;
82558;SDS011;72227;42.004;21.364;2024-03-22T12:40:35;94.38;;;90.65;;
82558;SDS011;72227;42.004;21.364;2024-03-22T12:43:01;95.22;;;91.22;;
82558;SDS011;72227;42.004;21.364;2024-03-22T12:45:28;104.85;;;100.50;;
82558;SDS011;72227;42.004;21.364;2024-03-22T12:47:55;90.13;;;86.32;;
82558;SDS011;72227;42.004;21.364;2024-03-22T12:50:21;104.43;;;100.40;;
82558;SDS011;72227;42.004;21.364;2024-03-22T12:52:47;119.90;;;115.20;;
82558;SDS011;72227;42.004;21.364;2024-03-22T12:55:13;111.68;;;107.50;;
82558;SDS011;72227;42.004;21.364;2024-03-22T12:57:39;106.63;;;102.35;;
82558;SDS011;72227;42.004;21.364;2024-03-22T13:00:06;111.07;;;106.93;;
82558;SDS011;72227;42.004;21.364;2024-03-22T13:02:40;119.65;;;114.70;;
82558;SDS011;72227;42.004;21.364;2024-03-22T13:05:07;81.35;;;78.10;;
82558;SDS011;72227;42.004;21.364;2024-03-22T13:07:33;113.72;;;109.32;;
82558;SDS011;72227;42.004;21.364;2024-03-22T13:09:59;98.40;;;93.90;;
82558;SDS011;72227;42.004;21.364;2024-03-22T13:12:28;81.10;;;77.63;;
82558;SDS011;72227;42.004;21.364;2024-03-22T13:14:59;84.20;;;80.80;;
82558;SDS011;72227;42.004;21.364;2024-03-22T13:17:25;97.85;;;94.00;;
82558;SDS011;72227;42.004;21.364;2024-03-22T13:19:52;112.70;;;108.28;;
82558;SDS011;72227;42.004;21.364;2024-03-22T13:22:18;99.53;;;95.72;;
82558;SDS011;72227;42.004;21.364;2024-03-22T13:24:47;103.75;;;99.28;;
82558;SDS011;72227;42.004;21.364;2024-03-22T13:27:15;104.80;;;100.68;;
82558;SDS011;72227;42.004;21.364;2024-03-22T13:29:41;91.28;;;87.65;;
82558;SDS011;72227;42.004;21.364;2024-03-22T13:32:08;151.88;;;146.25;;
82558;SDS011;72227;42.004;21.364;2024-03-22T13:34:34;88.85;;;85.10;;
82558;SDS011;72227;42.004;21.364;2024-03-22T13:37:01;73.82;;;70.75;;
82558;SDS011;72227;42.004;21.364;2024-03-22T13:39:27;100.60;;;96.80;;
82558;SDS011;72227;42.004;21.364;2024-03-22T13:41:55;118.38;;;113.75;;
82558;SDS011;72227;42.004;21.364;2024-03-22T13:44:21;141.75;;;136.60;;